Time;durP1;ratioP1;P1;durP2;ratioP2;P2;SDS_P1;SDS_P2;PMS_P1;PMS_P2;Temp;Humidity;BMP_temperature;BMP_pressure;BME280_temperature;BME280_humidity;BME280_pressure;Samples;Min_cycle;Max_cycle;Signal;HPM_P1;HPM_P2
2022/05/06 00:01:45;;;;;;;;;;;;;;;11.79;100.00;99891.06;5094246;28;19930;-81
2022/05/06 00:04:14;;;;;;;;;;;;;;;11.96;100.00;99883.72;5093022;28;19924;-81
2022/05/06 00:06:42;;;;;;;;;;;;;;;12.05;100.00;99890.44;5093313;28;20010;-81
2022/05/06 00:09:09;;;;;;;;;;;;;;;12.01;100.00;99881.25;5094247;28;19950;-81
2022/05/06 00:11:36;;;;;;;;;;;;;;;11.26;100.00;99879.41;5093461;28;19924;-81
2022/05/06 00:14:04;;;;;;;;;;;;;;;11.77;100.00;99890.66;5092918;28;19924;-81
2022/05/06 00:16:31;;;;;;;;;;;;;;;12.04;100.00;99891.63;5093741;28;19924;-85
2022/05/06 00:18:58;;;;;;;;;;;;;;;12.10;100.00;99880.78;5093219;28;19963;-82
2022/05/06 00:21:26;;;;;;;;;;;;;;;11.79;100.00;99885.47;5076010;28;19924;-82
2022/05/06 00:23:53;;;;;;;;;;;;;;;11.64;100.00;99883.16;5093164;28;20363;-82
2022/05/06 00:26:20;;;;;;;;;;;;;;;11.90;100.00;99880.56;5093600;28;20027;-81
2022/05/06 00:28:46;;;;;;;;;;;;;;;12.13;100.00;99883.53;5076411;28;20264;-81
2022/05/06 00:31:13;;;;;;;;;;;;;;;12.25;100.00;99874.63;5092422;28;19966;-81
2022/05/06 00:33:43;;;;;;;;;;;;;;;12.18;100.00;99868.28;5093487;28;19931;-81
2022/05/06 00:36:10;;;;;;;;;;;;;;;12.24;100.00;99873.03;5076430;28;19924;-81
2022/05/06 00:38:37;;;;;;;;;;;;;;;11.62;100.00;99869.59;5093135;28;20448;-81
2022/05/06 00:41:04;;;;;;;;;;;;;;;12.14;100.00;99882.34;5075830;28;19947;-81
2022/05/06 00:43:31;;;;;;;;;;;;;;;12.37;100.00;99873.31;5094174;28;19977;-81
2022/05/06 00:45:58;;;;;;;;;;;;;;;12.43;100.00;99875.22;5092549;28;20310;-81
2022/05/06 00:48:31;;;;;;;;;;;;;;;12.56;100.00;99867.91;5092638;28;19947;-81
2022/05/06 00:51:01;;;;;;;;;;;;;;;11.80;100.00;99869.47;5092268;28;20291;-81
2022/05/06 00:53:28;;;;;;;;;;;;;;;12.45;100.00;99867.22;5076171;28;19956;-81
2022/05/06 00:55:58;;;;;;;;;;;;;;;12.73;100.00;99869.72;5078595;28;20306;-81
2022/05/06 00:58:29;;;;;;;;;;;;;;;12.96;100.00;99868.22;5097700;28;20022;-81
2022/05/06 01:00:56;;;;;;;;;;;;;;;12.49;100.00;99873.59;5096045;28;19924;-81
2022/05/06 01:03:23;;;;;;;;;;;;;;;12.93;100.00;99874.66;5096616;28;19924;-81
2022/05/06 01:05:50;;;;;;;;;;;;;;;12.98;100.00;99865.78;5096422;28;19993;-81
2022/05/06 01:08:17;;;;;;;;;;;;;;;12.98;100.00;99863.00;5079373;28;19924;-81
2022/05/06 01:10:45;;;;;;;;;;;;;;;13.13;100.00;99861.63;5095993;28;19925;-82
2022/05/06 01:13:12;;;;;;;;;;;;;;;13.28;100.00;99857.41;5079347;28;19928;-82
2022/05/06 01:15:40;;;;;;;;;;;;;;;13.32;100.00;99858.13;5062010;28;19928;-82
2022/05/06 01:18:21;;;;;;;;;;;;;;;12.64;100.00;99858.19;5081094;28;19924;-83
2022/05/06 01:20:49;;;;;;;;;;;;;;;12.45;100.00;99867.22;5095546;28;19924;-82
2022/05/06 01:23:16;;;;;;;;;;;;;;;12.50;100.00;99861.16;5078516;28;19932;-82
2022/05/06 01:25:44;;;;;;;;;;;;;;;12.89;100.00;99863.47;5079850;28;20286;-82
2022/05/06 01:28:13;;;;;;;;;;;;;;;13.10;100.00;99870.88;5075056;28;20368;-81
2022/05/06 01:30:45;;;;;;;;;;;;;;;13.31;100.00;99862.16;5075080;28;20268;-83
2022/05/06 01:33:18;;;;;;;;;;;;;;;13.48;100.00;99863.91;5058577;28;19924;-81
2022/05/06 01:35:47;;;;;;;;;;;;;;;13.40;100.00;99859.63;5075366;28;19924;-81
2022/05/06 01:38:19;;;;;;;;;;;;;;;13.47;100.00;99859.50;5092768;28;19970;-80
2022/05/06 01:40:49;;;;;;;;;;;;;;;13.45;100.00;99847.94;5078574;28;19930;-81
2022/05/06 01:43:18;;;;;;;;;;;;;;;13.40;100.00;99852.00;5062009;28;20364;-81
2022/05/06 01:45:48;;;;;;;;;;;;;;;13.30;100.00;99849.34;5078389;28;20398;-82
2022/05/06 01:48:16;;;;;;;;;;;;;;;13.16;100.00;99843.94;5074639;28;19974;-81
2022/05/06 01:50:49;;;;;;;;;;;;;;;13.45;100.00;99845.13;5075050;28;19975;-82
2022/05/06 01:53:17;;;;;;;;;;;;;;;13.38;100.00;99839.59;5058249;28;19958;-82
2022/05/06 01:55:47;;;;;;;;;;;;;;;13.59;100.00;99839.25;5074663;28;19925;-82
2022/05/06 01:58:16;;;;;;;;;;;;;;;13.41;100.00;99841.56;5074698;28;19924;-82
2022/05/06 02:00:51;;;;;;;;;;;;;;;12.86;100.00;99844.69;5059352;28;19925;-82
2022/05/06 02:06:12;;;;;;;;;;;;;;;12.36;100.00;99847.28;5074682;28;19924;-80
2022/05/06 02:08:43;;;;;;;;;;;;;;;12.92;100.00;99850.66;5074718;28;20334;-80
2022/05/06 02:11:18;;;;;;;;;;;;;;;13.31;100.00;99839.72;5057837;28;19924;-81
2022/05/06 02:13:46;;;;;;;;;;;;;;;13.29;100.00;99850.56;5074550;28;19925;-81
2022/05/06 02:16:22;;;;;;;;;;;;;;;12.91;100.00;99849.84;5042817;28;20375;-81
2022/05/06 02:19:14;;;;;;;;;;;;;;;13.44;100.00;99846.31;5074544;28;20387;-81
2022/05/06 02:22:17;;;;;;;;;;;;;;;13.58;100.00;99837.69;5059080;28;20057;-82
2022/05/06 02:24:52;;;;;;;;;;;;;;;13.64;100.00;99841.59;5057494;28;19925;-82
2022/05/06 02:27:37;;;;;;;;;;;;;;;13.59;100.00;99844.88;5073872;28;20364;-83
2022/05/06 02:33:13;;;;;;;;;;;;;;;13.46;100.00;99849.50;5079903;28;19924;-81
2022/05/06 02:35:53;;;;;;;;;;;;;;;13.50;100.00;99847.44;5063799;28;19928;-81
2022/05/06 02:38:26;;;;;;;;;;;;;;;13.38;100.00;99848.00;5080892;28;19925;-79
2022/05/06 02:40:54;;;;;;;;;;;;;;;13.33;100.00;99840.09;5079370;28;19956;-80
2022/05/06 02:43:22;;;;;;;;;;;;;;;13.13;100.00;99844.78;5074122;28;19932;-80
2022/05/06 02:45:52;;;;;;;;;;;;;;;12.46;100.00;99857.56;5057796;28;20405;-81
2022/05/06 02:48:19;;;;;;;;;;;;;;;12.77;100.00;99862.03;5091924;28;19962;-81
2022/05/06 02:50:48;;;;;;;;;;;;;;;13.08;100.00;99859.28;5094152;28;19931;-81
2022/05/06 02:53:18;;;;;;;;;;;;;;;13.17;100.00;99857.53;5060303;28;19930;-83
2022/05/06 02:55:46;;;;;;;;;;;;;;;13.31;100.00;99851.75;5093506;28;20351;-82
2022/05/06 02:58:14;;;;;;;;;;;;;;;13.35;100.00;99852.47;5077078;28;19930;-80
2022/05/06 03:00:43;;;;;;;;;;;;;;;13.25;100.00;99849.81;5093863;28;19924;-81
2022/05/06 03:03:11;;;;;;;;;;;;;;;12.73;100.00;99844.47;5073792;28;20057;-82
2022/05/06 03:05:41;;;;;;;;;;;;;;;11.81;100.00;99843.03;5073370;28;20011;-83
2022/05/06 03:08:08;;;;;;;;;;;;;;;12.05;100.00;99851.22;5073497;28;19924;-80
2022/05/06 03:10:36;;;;;;;;;;;;;;;12.56;100.00;99853.88;5056256;28;19924;-81
2022/05/06 03:13:04;;;;;;;;;;;;;;;12.66;100.00;99849.38;5073565;28;20030;-81
2022/05/06 03:15:31;;;;;;;;;;;;;;;12.94;100.00;99842.59;5056736;28;19994;-82
2022/05/06 03:18:07;;;;;;;;;;;;;;;12.94;100.00;99828.56;5072982;28;19956;-82
2022/05/06 03:20:34;;;;;;;;;;;;;;;13.14;100.00;99835.13;5074327;28;19928;-81
2022/05/06 03:23:01;;;;;;;;;;;;;;;13.04;100.00;99836.09;5073340;28;20352;-81
2022/05/06 03:25:28;;;;;;;;;;;;;;;12.41;100.00;99834.81;5056001;28;19924;-81
2022/05/06 03:28:03;;;;;;;;;;;;;;;11.94;100.00;99833.72;5072937;28;19925;-82
2022/05/06 03:30:31;;;;;;;;;;;;;;;12.55;100.00;99843.88;5073104;28;19997;-82
2022/05/06 03:33:08;;;;;;;;;;;;;;;12.15;100.00;99839.09;5074099;28;20019;-82
2022/05/06 03:35:37;;;;;;;;;;;;;;;12.56;100.00;99831.44;5072823;28;19931;-82
2022/05/06 03:38:05;;;;;;;;;;;;;;;12.83;100.00;99836.34;5056218;28;19950;-82
2022/05/06 03:40:34;;;;;;;;;;;;;;;12.99;100.00;99828.91;5073058;28;20292;-82
2022/05/06 03:43:03;;;;;;;;;;;;;;;12.34;100.00;99832.13;5072727;28;19928;-82
2022/05/06 03:45:32;;;;;;;;;;;;;;;12.74;100.00;99828.41;5072776;28;19928;-82
2022/05/06 03:48:01;;;;;;;;;;;;;;;12.52;100.00;99839.13;5055769;28;20032;-82
2022/05/06 03:53:19;;;;;;;;;;;;;;;12.54;100.00;99833.09;5055819;28;19924;-82
2022/05/06 03:55:51;;;;;;;;;;;;;;;12.80;100.00;99831.56;5072756;28;19981;-82
2022/05/06 03:58:18;;;;;;;;;;;;;;;12.70;100.00;99822.88;5073145;28;19924;-82
2022/05/06 04:00:46;;;;;;;;;;;;;;;12.59;100.00;99819.41;5073142;28;19925;-82
2022/05/06 04:03:15;;;;;;;;;;;;;;;12.48;100.00;99827.13;5072644;28;20019;-82
2022/05/06 04:05:43;;;;;;;;;;;;;;;12.88;100.00;99821.84;5072492;28;19974;-82
2022/05/06 04:08:10;;;;;;;;;;;;;;;12.63;100.00;99820.13;5072373;28;19928;-82
2022/05/06 04:10:41;;;;;;;;;;;;;;;12.61;100.00;99825.41;5039105;28;19928;-82
2022/05/06 04:13:08;;;;;;;;;;;;;;;12.77;100.00;99822.78;5055881;28;19932;-82
2022/05/06 04:15:35;;;;;;;;;;;;;;;12.69;100.00;99821.25;5055809;28;19924;-82
2022/05/06 04:18:06;;;;;;;;;;;;;;;12.87;100.00;99823.06;5072534;28;20348;-82
2022/05/06 04:23:30;;;;;;;;;;;;;;;12.48;100.00;99821.53;5072905;28;19924;-82
2022/05/06 04:26:04;;;;;;;;;;;;;;;12.68;100.00;99821.69;5055739;28;19925;-82
2022/05/06 04:28:34;;;;;;;;;;;;;;;12.40;100.00;99824.84;5072331;28;19925;-82
2022/05/06 04:31:04;;;;;;;;;;;;;;;12.59;100.00;99822.22;5042348;28;19931;-82
2022/05/06 04:33:39;;;;;;;;;;;;;;;12.81;100.00;99819.13;5059973;28;20376;-82
2022/05/06 04:36:11;;;;;;;;;;;;;;;12.45;100.00;99822.38;5075986;28;19929;-82
2022/05/06 04:38:42;;;;;;;;;;;;;;;12.74;100.00;99826.41;5076030;28;19925;-82
2022/05/06 04:41:10;;;;;;;;;;;;;;;12.86;100.00;99835.50;5076670;28;19925;-82
2022/05/06 04:43:37;;;;;;;;;;;;;;;12.81;100.00;99827.53;5059564;28;20011;-82
2022/05/06 04:46:04;;;;;;;;;;;;;;;12.92;100.00;99825.41;5076090;28;20045;-82
2022/05/06 04:48:33;;;;;;;;;;;;;;;12.72;100.00;99814.81;5059741;28;19924;-82
2022/05/06 04:51:03;;;;;;;;;;;;;;;12.97;100.00;99819.31;5059210;28;19924;-82
2022/05/06 04:53:30;;;;;;;;;;;;;;;12.93;100.00;99808.16;5059362;28;19929;-82
2022/05/06 04:55:58;;;;;;;;;;;;;;;12.91;100.00;99823.78;5075993;28;19924;-82
2022/05/06 04:58:33;;;;;;;;;;;;;;;13.20;100.00;99816.59;5059304;28;20504;-82
2022/05/06 05:01:04;;;;;;;;;;;;;;;13.30;100.00;99813.66;5077643;28;19934;-82
2022/05/06 05:03:32;;;;;;;;;;;;;;;13.25;100.00;99816.16;5076189;28;19925;-82
2022/05/06 05:06:01;;;;;;;;;;;;;;;13.42;100.00;99815.09;5075338;28;19928;-82
2022/05/06 05:08:29;;;;;;;;;;;;;;;13.59;100.00;99828.03;5042412;28;19986;-82
2022/05/06 05:11:02;;;;;;;;;;;;;;;12.59;100.00;99818.59;5075307;28;19924;-82
2022/05/06 05:13:38;;;;;;;;;;;;;;;13.40;100.00;99825.94;5075531;28;20011;-82
2022/05/06 05:16:08;;;;;;;;;;;;;;;13.49;100.00;99829.00;5075675;28;19924;-82
2022/05/06 05:18:36;;;;;;;;;;;;;;;13.22;100.00;99822.59;5059542;28;19924;-82
2022/05/06 05:21:04;;;;;;;;;;;;;;;13.56;100.00;99824.06;5075427;28;20280;-82
2022/05/06 05:23:31;;;;;;;;;;;;;;;13.54;100.00;99822.91;5075608;28;19932;-82
2022/05/06 05:26:00;;;;;;;;;;;;;;;13.86;100.00;99820.34;5075679;28;20336;-82
2022/05/06 05:28:27;;;;;;;;;;;;;;;13.67;100.00;99818.28;5058749;28;19932;-82
2022/05/06 05:30:55;;;;;;;;;;;;;;;13.44;100.00;99815.44;5075526;28;19931;-82
2022/05/06 05:33:22;;;;;;;;;;;;;;;13.75;100.00;99814.13;5075084;28;20019;-82
2022/05/06 05:35:54;;;;;;;;;;;;;;;14.23;100.00;99801.25;5058291;28;20375;-82
2022/05/06 05:38:22;;;;;;;;;;;;;;;14.22;100.00;99802.44;5058425;28;19982;-82
2022/05/06 05:40:50;;;;;;;;;;;;;;;13.89;100.00;99808.25;5058773;28;19932;-82
2022/05/06 05:48:55;;;;;;;;;;;;;;;14.26;100.00;99796.78;5074401;28;19931;-82
2022/05/06 05:51:22;;;;;;;;;;;;;;;14.13;100.00;99790.19;5074262;28;19925;-82
2022/05/06 05:53:54;;;;;;;;;;;;;;;14.28;100.00;99797.16;5057898;28;19924;-83
2022/05/06 05:56:24;;;;;;;;;;;;;;;14.01;100.00;99788.00;5074113;28;19925;-82
2022/05/06 05:58:52;;;;;;;;;;;;;;;14.59;100.00;99784.47;5058055;28;19990;-82
2022/05/06 06:01:22;;;;;;;;;;;;;;;14.63;100.00;99773.91;5041857;28;20435;-83
2022/05/06 06:03:50;;;;;;;;;;;;;;;14.88;100.00;99788.25;5074275;28;19924;-82
2022/05/06 06:06:17;;;;;;;;;;;;;;;15.06;100.00;99783.03;5040152;28;20007;-82
2022/05/06 06:08:48;;;;;;;;;;;;;;;15.28;100.00;99780.50;5041258;28;19930;-82
2022/05/06 06:11:17;;;;;;;;;;;;;;;15.29;100.00;99766.00;5058042;28;19979;-86
2022/05/06 06:13:47;;;;;;;;;;;;;;;15.61;100.00;99776.50;5074466;28;20330;-85
2022/05/06 06:16:19;;;;;;;;;;;;;;;15.85;100.00;99784.34;5058411;28;19932;-86
2022/05/06 06:18:49;;;;;;;;;;;;;;;16.01;100.00;99770.22;5057553;28;20024;-87
2022/05/06 06:21:20;;;;;;;;;;;;;;;16.31;100.00;99768.22;5060709;28;20447;-86
2022/05/06 06:23:48;;;;;;;;;;;;;;;16.46;100.00;99764.59;5076752;28;20022;-85
2022/05/06 06:26:15;;;;;;;;;;;;;;;16.55;100.00;99755.47;5090705;28;19931;-85
2022/05/06 06:28:42;;;;;;;;;;;;;;;16.30;100.00;99752.53;5074303;28;19978;-85
2022/05/06 06:31:12;;;;;;;;;;;;;;;15.83;100.00;99747.34;5057883;28;19928;-85
2022/05/06 06:33:40;;;;;;;;;;;;;;;16.05;100.00;99739.91;5073049;28;19985;-85
2022/05/06 06:36:13;;;;;;;;;;;;;;;15.89;100.00;99737.13;5056885;28;20326;-84
2022/05/06 06:38:41;;;;;;;;;;;;;;;16.73;100.00;99735.97;5056009;28;19924;-85
2022/05/06 06:41:09;;;;;;;;;;;;;;;17.35;100.00;99743.69;5071878;28;19925;-85
2022/05/06 06:43:38;;;;;;;;;;;;;;;17.88;100.00;99732.22;5073761;28;19924;-85
2022/05/06 06:46:21;;;;;;;;;;;;;;;18.82;100.00;99724.28;5072743;28;19953;-86
2022/05/06 06:48:58;;;;;;;;;;;;;;;19.51;100.00;99725.53;5023966;28;19932;-86
2022/05/06 06:51:38;;;;;;;;;;;;;;;19.61;100.00;99721.47;5068689;28;19985;-86
2022/05/06 06:54:06;;;;;;;;;;;;;;;19.46;100.00;99734.66;5072572;28;19931;-86
2022/05/06 06:56:33;;;;;;;;;;;;;;;19.81;100.00;99732.41;5057235;28;19959;-86
2022/05/06 06:59:00;;;;;;;;;;;;;;;19.87;100.00;99732.56;5041622;28;19931;-87
2022/05/06 07:01:27;;;;;;;;;;;;;;;19.44;100.00;99737.19;5092298;28;19924;-86
2022/05/06 07:03:54;;;;;;;;;;;;;;;19.04;100.00;99735.56;5091841;28;20282;-87
2022/05/06 07:11:54;;;;;;;;;;;;;;;22.44;100.00;99731.03;5092291;28;19925;-87
2022/05/06 07:14:25;;;;;;;;;;;;;;;22.31;100.00;99713.41;5075367;28;20294;-87
2022/05/06 07:16:53;;;;;;;;;;;;;;;22.16;100.00;99726.81;5042319;28;19936;-85
2022/05/06 07:19:20;;;;;;;;;;;;;;;21.56;100.00;99719.78;5074760;28;19931;-84
2022/05/06 07:21:51;;;;;;;;;;;;;;;21.57;100.00;99716.47;5067728;28;19969;-87
2022/05/06 07:24:19;;;;;;;;;;;;;;;23.34;100.00;99722.81;5071273;28;19924;-88
2022/05/06 07:26:46;;;;;;;;;;;;;;;23.70;100.00;99725.16;5082848;28;20268;-87
2022/05/06 07:29:13;;;;;;;;;;;;;;;22.98;100.00;99716.25;5067311;28;19924;-81
2022/05/06 07:31:42;;;;;;;;;;;;;;;22.04;100.00;99730.72;5055514;28;19924;-91
2022/05/06 07:34:10;;;;;;;;;;;;;;;21.35;100.00;99733.00;5056409;28;20380;-87
2022/05/06 07:36:42;;;;;;;;;;;;;;;20.86;100.00;99733.31;5073280;28;19928;-91
2022/05/06 07:39:13;;;;;;;;;;;;;;;20.72;100.00;99724.69;5040072;28;20015;-92
2022/05/06 07:41:40;;;;;;;;;;;;;;;19.58;100.00;99736.56;5040294;28;19924;-90
2022/05/06 07:44:08;;;;;;;;;;;;;;;19.13;100.00;99744.13;5056335;28;19963;-90
2022/05/06 07:46:35;;;;;;;;;;;;;;;18.87;100.00;99735.00;5039557;28;20400;-91
2022/05/06 07:49:04;;;;;;;;;;;;;;;19.81;100.00;99731.59;5039908;28;19928;-91
2022/05/06 07:51:31;;;;;;;;;;;;;;;19.35;100.00;99734.31;5070428;28;20623;-90
2022/05/06 07:53:59;;;;;;;;;;;;;;;19.94;100.00;99720.91;5058387;28;19939;-92
2022/05/06 07:56:26;;;;;;;;;;;;;;;19.58;100.00;99724.47;5091038;28;19924;-92
2022/05/06 07:58:53;;;;;;;;;;;;;;;19.29;100.00;99730.53;5073293;28;20341;-92
2022/05/06 08:06:53;;;;;;;;;;;;;;;18.59;100.00;99709.81;5086864;28;19924;-91
2022/05/06 08:09:23;;;;;;;;;;;;;;;18.94;100.00;99706.44;5078097;28;20286;-91
2022/05/06 08:11:51;;;;;;;;;;;;;;;19.47;100.00;99707.13;5061748;28;19931;-92
2022/05/06 08:14:19;;;;;;;;;;;;;;;19.39;100.00;99703.78;5061394;28;19931;-91
2022/05/06 08:16:47;;;;;;;;;;;;;;;19.79;100.00;99700.88;5062322;28;19931;-91
2022/05/06 08:19:16;;;;;;;;;;;;;;;20.92;100.00;99710.72;5079393;28;19947;-92
2022/05/06 08:21:47;;;;;;;;;;;;;;;20.61;100.00;99704.50;5094767;28;20015;-89
2022/05/06 08:24:14;;;;;;;;;;;;;;;20.39;100.00;99698.22;5095711;28;19924;-92
2022/05/06 08:26:41;;;;;;;;;;;;;;;20.42;100.00;99691.59;5095878;28;19966;-91
2022/05/06 08:29:08;;;;;;;;;;;;;;;20.12;100.00;99695.38;5059308;28;20029;-92
2022/05/06 08:31:39;;;;;;;;;;;;;;;19.50;100.00;99709.81;5044896;28;19932;-92
2022/05/06 08:34:11;;;;;;;;;;;;;;;20.02;100.00;99708.78;5059123;28;19964;-93
2022/05/06 08:36:39;;;;;;;;;;;;;;;19.65;100.00;99710.00;5041491;28;20029;-92
2022/05/06 08:39:07;;;;;;;;;;;;;;;19.83;100.00;99707.19;5074183;28;19925;-93
2022/05/06 08:41:38;;;;;;;;;;;;;;;20.70;100.00;99707.31;5045039;28;19924;-93
2022/05/06 08:52:33;;;;;;;;;;;;;;;18.81;100.00;99711.38;5083600;28;19925;-88
2022/05/06 08:55:03;;;;;;;;;;;;;;;19.04;100.00;99725.03;5074265;28;19952;-90
2022/05/06 08:57:31;;;;;;;;;;;;;;;19.22;100.00;99707.34;5089747;28;19963;-89
2022/05/06 08:59:58;;;;;;;;;;;;;;;19.61;100.00;99717.88;5093860;28;20028;-89
2022/05/06 09:02:26;;;;;;;;;;;;;;;19.81;100.00;99714.59;5076684;28;20356;-93
2022/05/06 09:04:53;;;;;;;;;;;;;;;19.25;100.00;99718.50;5044551;28;19934;-88
2022/05/06 09:07:22;;;;;;;;;;;;;;;18.32;100.00;99723.75;5073416;28;19955;-82
2022/05/06 09:10:15;;;;;;;;;;;;;;;18.05;100.00;99723.53;5094344;28;19955;-91
2022/05/06 09:13:00;;;;;;;;;;;;;;;17.94;100.00;99743.72;5077551;28;20417;-91
2022/05/06 09:18:20;;;;;;;;;;;;;;;18.61;100.00;99742.09;5095734;28;19978;-91
2022/05/06 09:20:50;;;;;;;;;;;;;;;18.37;100.00;99738.16;5061425;28;19928;-92
2022/05/06 09:23:25;;;;;;;;;;;;;;;18.50;100.00;99733.22;5057298;28;19924;-91
2022/05/06 09:25:52;;;;;;;;;;;;;;;18.88;100.00;99733.78;5039172;28;20007;-81
2022/05/06 09:28:25;;;;;;;;;;;;;;;18.92;100.00;99739.28;5073526;28;19920;-82
2022/05/06 09:31:00;;;;;;;;;;;;;;;18.36;100.00;99733.69;5073663;28;19916;-82
2022/05/06 09:33:28;;;;;;;;;;;;;;;18.03;100.00;99740.97;5073570;28;19925;-82
2022/05/06 09:35:56;;;;;;;;;;;;;;;18.14;100.00;99752.69;5057338;28;19924;-82
2022/05/06 09:38:29;;;;;;;;;;;;;;;17.74;100.00;99746.03;5094196;28;19924;-85
2022/05/06 09:40:57;;;;;;;;;;;;;;;17.68;100.00;99743.00;5076231;28;20022;-87
2022/05/06 09:43:26;;;;;;;;;;;;;;;18.41;100.00;99743.66;5093788;28;20066;-83
2022/05/06 09:45:53;;;;;;;;;;;;;;;18.17;100.00;99746.13;5093565;28;19931;-81
2022/05/06 09:48:20;;;;;;;;;;;;;;;18.26;100.00;99746.22;5091625;28;20288;-81
2022/05/06 09:50:48;;;;;;;;;;;;;;;18.36;100.00;99747.84;5092909;28;19924;-81
2022/05/06 09:53:21;;;;;;;;;;;;;;;18.05;100.00;99744.13;5091731;28;20301;-80
2022/05/06 09:55:49;;;;;;;;;;;;;;;18.28;100.00;99746.50;5092220;28;20298;-81
2022/05/06 09:58:16;;;;;;;;;;;;;;;18.45;100.00;99744.34;5093285;28;19924;-81
2022/05/06 10:00:44;;;;;;;;;;;;;;;17.92;100.00;99749.03;5093145;28;20026;-82
2022/05/06 10:03:11;;;;;;;;;;;;;;;17.87;100.00;99755.28;5093691;28;20348;-82
2022/05/06 10:05:39;;;;;;;;;;;;;;;17.71;100.00;99763.88;5091972;28;20018;-81
2022/05/06 10:08:06;;;;;;;;;;;;;;;17.69;100.00;99761.53;5091920;28;19946;-82
2022/05/06 10:10:38;;;;;;;;;;;;;;;18.10;100.00;99757.69;5093428;28;19924;-81
2022/05/06 10:13:25;;;;;;;;;;;;;;;18.23;100.00;99743.50;5092206;28;19924;-82
2022/05/06 10:15:53;;;;;;;;;;;;;;;18.22;100.00;99748.34;5092885;28;19924;-80
2022/05/06 10:18:34;;;;;;;;;;;;;;;18.22;100.00;99747.59;5091447;28;20026;-80
2022/05/06 10:21:09;;;;;;;;;;;;;;;18.21;100.00;99740.31;5092021;28;19928;-81
2022/05/06 10:23:42;;;;;;;;;;;;;;;18.48;100.00;99749.06;5091810;28;20447;-81
2022/05/06 10:26:29;;;;;;;;;;;;;;;17.86;100.00;99745.19;5091062;28;20379;-80
2022/05/06 10:34:29;;;;;;;;;;;;;;;18.27;100.00;99742.13;5070547;28;19977;-81
2022/05/06 10:36:57;;;;;;;;;;;;;;;18.45;100.00;99745.13;5071630;28;20371;-82
2022/05/06 10:39:36;;;;;;;;;;;;;;;18.46;100.00;99746.72;5074706;28;19946;-81
2022/05/06 10:42:11;;;;;;;;;;;;;;;17.93;100.00;99747.81;5092557;28;20512;-81
2022/05/06 10:44:48;;;;;;;;;;;;;;;17.62;100.00;99750.47;5091240;28;20438;-81
2022/05/06 10:47:15;;;;;;;;;;;;;;;18.38;100.00;99739.72;5091547;28;20371;-80
2022/05/06 10:49:51;;;;;;;;;;;;;;;18.17;100.00;99745.34;5089283;28;19935;-81
2022/05/06 10:55:00;;;;;;;;;;;;;;;18.58;100.00;99734.53;5092071;28;19931;-81
2022/05/06 10:57:43;;;;;;;;;;;;;;;18.74;100.00;99727.84;5074517;28;20416;-79
2022/05/06 11:00:11;;;;;;;;;;;;;;;18.55;100.00;99741.13;5092041;28;20359;-80
2022/05/06 11:02:38;;;;;;;;;;;;;;;18.58;100.00;99737.38;5090663;28;19924;-81
2022/05/06 11:05:06;;;;;;;;;;;;;;;18.66;100.00;99733.00;5091491;28;19977;-81
2022/05/06 11:07:35;;;;;;;;;;;;;;;18.71;100.00;99723.91;5090567;28;20280;-81
2022/05/06 11:10:08;;;;;;;;;;;;;;;18.52;100.00;99730.72;5091052;28;19970;-81
2022/05/06 11:12:37;;;;;;;;;;;;;;;18.40;100.00;99728.75;5091434;28;19973;-80
2022/05/06 11:15:09;;;;;;;;;;;;;;;18.49;100.00;99734.47;5090954;28;19927;-80
2022/05/06 11:17:36;;;;;;;;;;;;;;;18.39;100.00;99741.28;5089740;28;19924;-80
2022/05/06 11:20:14;;;;;;;;;;;;;;;18.45;100.00;99738.69;5073838;28;19924;-80
2022/05/06 11:22:54;;;;;;;;;;;;;;;18.28;100.00;99737.25;5091195;28;20347;-80
2022/05/06 11:25:22;;;;;;;;;;;;;;;18.23;100.00;99744.28;5069989;28;19931;-81
2022/05/06 11:27:50;;;;;;;;;;;;;;;18.47;100.00;99736.97;5077284;28;20799;-81
2022/05/06 11:30:18;;;;;;;;;;;;;;;18.65;100.00;99733.44;5091235;28;20019;-80
2022/05/06 11:32:46;;;;;;;;;;;;;;;18.64;100.00;99738.34;5091781;28;19924;-81
2022/05/06 11:35:15;;;;;;;;;;;;;;;18.20;100.00;99739.56;5091467;28;19924;-81
2022/05/06 11:37:42;;;;;;;;;;;;;;;18.40;100.00;99742.91;5091159;28;20275;-81
2022/05/06 11:42:51;;;;;;;;;;;;;;;18.31;100.00;99745.59;5092038;28;19928;-80
2022/05/06 11:48:06;;;;;;;;;;;;;;;18.54;100.00;99736.69;5088894;28;19974;-80
2022/05/06 11:50:36;;;;;;;;;;;;;;;18.38;100.00;99739.72;5088077;28;20445;-76
2022/05/06 11:53:05;;;;;;;;;;;;;;;18.51;100.00;99737.59;5089963;28;19928;-76
2022/05/06 11:55:35;;;;;;;;;;;;;;;18.66;100.00;99737.88;5088472;28;19930;-76
2022/05/06 11:58:05;;;;;;;;;;;;;;;18.85;100.00;99729.03;5090043;28;19959;-80
2022/05/06 12:00:33;;;;;;;;;;;;;;;18.86;100.00;99730.59;5090961;28;20022;-76
2022/05/06 12:03:04;;;;;;;;;;;;;;;18.93;100.00;99726.72;5090304;28;20737;-77
2022/05/06 12:05:33;;;;;;;;;;;;;;;18.69;100.00;99725.63;5088707;28;19924;-79
2022/05/06 12:08:08;;;;;;;;;;;;;;;18.44;100.00;99732.22;5090884;28;19924;-79
2022/05/06 12:10:38;;;;;;;;;;;;;;;18.12;100.00;99721.25;5071983;28;20062;-79
2022/05/06 12:13:07;;;;;;;;;;;;;;;18.02;100.00;99731.69;5091046;28;19924;-79
2022/05/06 12:15:39;;;;;;;;;;;;;;;17.96;100.00;99727.09;5092497;28;20011;-79
2022/05/06 12:18:07;;;;;;;;;;;;;;;17.92;100.00;99723.59;5092297;28;19971;-78
2022/05/06 12:20:38;;;;;;;;;;;;;;;17.97;100.00;99725.84;5091776;28;19935;-79
2022/05/06 12:23:06;;;;;;;;;;;;;;;17.42;100.00;99734.97;5093469;28;20405;-79
2022/05/06 12:25:39;;;;;;;;;;;;;;;17.73;100.00;99727.50;5075852;28;19924;-80
2022/05/06 12:28:09;;;;;;;;;;;;;;;17.55;100.00;99718.84;5073870;28;20287;-79
2022/05/06 12:30:37;;;;;;;;;;;;;;;17.37;100.00;99724.25;5055947;28;19970;-80
2022/05/06 12:33:08;;;;;;;;;;;;;;;17.35;100.00;99719.06;5075173;28;20422;-80
2022/05/06 12:36:03;;;;;;;;;;;;;;;17.32;100.00;99725.63;5089982;28;20247;-80
2022/05/06 12:38:41;;;;;;;;;;;;;;;17.37;100.00;99713.72;5067832;28;19931;-80
2022/05/06 12:41:19;;;;;;;;;;;;;;;17.36;100.00;99717.00;5070670;28;19924;-79
2022/05/06 12:43:49;;;;;;;;;;;;;;;17.88;100.00;99720.09;5074361;28;20016;-79
2022/05/06 12:46:31;;;;;;;;;;;;;;;18.07;100.00;99719.00;5088667;28;19928;-80
2022/05/06 12:51:45;;;;;;;;;;;;;;;17.88;100.00;99711.63;5092147;28;19964;-79
2022/05/06 12:54:12;;;;;;;;;;;;;;;17.64;100.00;99721.75;5092541;28;19999;-79
2022/05/06 12:56:39;;;;;;;;;;;;;;;17.82;100.00;99721.94;5093567;28;19931;-79
2022/05/06 12:59:07;;;;;;;;;;;;;;;17.95;100.00;99711.34;5094009;28;19924;-79
2022/05/06 13:01:34;;;;;;;;;;;;;;;17.89;100.00;99718.84;5092407;28;19928;-79
2022/05/06 13:04:02;;;;;;;;;;;;;;;17.47;100.00;99729.59;5071596;28;20383;-79
2022/05/06 13:06:30;;;;;;;;;;;;;;;17.58;100.00;99715.09;5086160;28;19927;-79
2022/05/06 13:08:58;;;;;;;;;;;;;;;17.58;100.00;99732.06;5087123;28;20283;-79
2022/05/06 13:11:25;;;;;;;;;;;;;;;17.52;100.00;99731.03;5091908;28;19936;-79
2022/05/06 13:13:52;;;;;;;;;;;;;;;17.72;100.00;99721.03;5075155;28;19956;-79
2022/05/06 13:16:19;;;;;;;;;;;;;;;17.95;100.00;99722.66;5092850;28;19924;-79
2022/05/06 13:18:50;;;;;;;;;;;;;;;18.12;100.00;99712.78;5091731;28;20379;-79
2022/05/06 13:21:17;;;;;;;;;;;;;;;18.09;100.00;99715.72;5093341;28;19928;-79
2022/05/06 13:23:44;;;;;;;;;;;;;;;18.39;100.00;99715.84;5070936;28;19928;-80
2022/05/06 13:26:11;;;;;;;;;;;;;;;18.51;100.00;99712.13;5080683;28;20363;-79
2022/05/06 13:28:38;;;;;;;;;;;;;;;18.91;100.00;99704.53;5093595;28;19928;-79
2022/05/06 13:31:05;;;;;;;;;;;;;;;18.42;100.00;99706.41;5091474;28;19924;-79
2022/05/06 13:33:32;;;;;;;;;;;;;;;18.35;100.00;99714.34;5093758;28;19931;-79
2022/05/06 13:35:59;;;;;;;;;;;;;;;18.41;100.00;99716.16;5093580;28;19924;-79
2022/05/06 13:38:26;;;;;;;;;;;;;;;18.39;100.00;99713.00;5095740;28;19981;-79
2022/05/06 13:40:53;;;;;;;;;;;;;;;18.39;100.00;99704.50;5095948;28;19960;-80
2022/05/06 13:43:21;;;;;;;;;;;;;;;18.22;100.00;99703.09;5095133;28;19974;-80
2022/05/06 13:45:48;;;;;;;;;;;;;;;18.20;100.00;99699.97;5077866;28;19924;-79